Time;durP1;ratioP1;P1;durP2;ratioP2;P2;SDS_P1;SDS_P2;PMS_P1;PMS_P2;Temp;Humidity;BMP_temperature;BMP_pressure;BME280_temperature;BME280_humidity;BME280_pressure;Samples;Min_cycle;Max_cycle;Signal;HPM_P1;HPM_P2
2023/04/03 00:02:22;;;;;;;2.85;1.70;;;;;;;;;;4988030;28;20074;-71
2023/04/03 00:04:51;;;;;;;3.25;1.35;;;;;;;;;;4987448;28;20599;-71
2023/04/03 00:07:17;;;;;;;3.22;1.73;;;;;;;;;;4987901;28;20046;-71
2023/04/03 00:09:44;;;;;;;2.00;1.80;;;;;;;;;;4982463;28;20091;-72
2023/04/03 00:12:11;;;;;;;2.00;1.60;;;;;;;;;;4968650;28;20412;-71
2023/04/03 00:14:38;;;;;;;2.53;1.50;;;;;;;;;;4968314;28;20059;-71
2023/04/03 00:17:04;;;;;;;2.88;1.60;;;;;;;;;;4968378;28;20492;-71
2023/04/03 00:19:31;;;;;;;3.70;1.90;;;;;;;;;;4968327;28;20047;-71
2023/04/03 00:21:59;;;;;;;3.00;1.67;;;;;;;;;;4968716;28;20130;-71
2023/04/03 00:24:26;;;;;;;2.90;1.80;;;;;;;;;;4968562;28;20073;-71
2023/04/03 00:26:53;;;;;;;2.42;1.38;;;;;;;;;;4968057;28;20539;-71
2023/04/03 00:29:20;;;;;;;2.58;1.55;;;;;;;;;;4968224;28;20484;-71
2023/04/03 00:31:46;;;;;;;5.45;1.80;;;;;;;;;;4967816;28;20143;-71
2023/04/03 00:34:13;;;;;;;2.60;1.65;;;;;;;;;;4968340;28;20046;-71
2023/04/03 00:36:40;;;;;;;2.72;1.80;;;;;;;;;;4967822;28;20058;-70
2023/04/03 00:39:08;;;;;;;2.85;1.60;;;;;;;;;;4967710;28;20051;-71
2023/04/03 00:41:35;;;;;;;3.35;1.83;;;;;;;;;;4967891;28;20081;-71
2023/04/03 00:44:01;;;;;;;2.17;1.73;;;;;;;;;;4968016;28;20077;-71
2023/04/03 00:46:28;;;;;;;2.08;1.50;;;;;;;;;;4967459;28;20051;-71
2023/04/03 00:48:55;;;;;;;2.50;1.80;;;;;;;;;;4967889;28;20298;-71
2023/04/03 00:51:24;;;;;;;2.30;1.55;;;;;;;;;;4967698;28;20043;-72
2023/04/03 00:53:56;;;;;;;1.95;1.65;;;;;;;;;;4967825;28;20043;-71
2023/04/03 00:56:28;;;;;;;5.50;1.95;;;;;;;;;;4967450;28;20051;-71
2023/04/03 00:58:57;;;;;;;3.80;2.15;;;;;;;;;;4967312;28;20066;-71
2023/04/03 01:01:27;;;;;;;2.70;1.88;;;;;;;;;;4967939;28;20043;-71
2023/04/03 01:03:54;;;;;;;2.42;1.98;;;;;;;;;;4967095;28;20042;-71
2023/04/03 01:06:25;;;;;;;2.60;1.77;;;;;;;;;;4968811;28;20154;-71
2023/04/03 01:08:53;;;;;;;3.38;1.77;;;;;;;;;;4970632;28;20058;-71
2023/04/03 01:11:20;;;;;;;2.40;1.77;;;;;;;;;;4970980;28;20137;-71
2023/04/03 01:13:49;;;;;;;2.08;1.70;;;;;;;;;;4970570;28;20047;-71
2023/04/03 01:16:16;;;;;;;2.28;1.63;;;;;;;;;;4971255;28;20074;-71
2023/04/03 01:18:43;;;;;;;2.45;1.80;;;;;;;;;;4970510;28;20050;-71
2023/04/03 01:22:00;;;;;;;3.45;1.75;;;;;;;;;;4971526;28;20488;-71
2023/04/03 01:24:39;;;;;;;2.75;1.70;;;;;;;;;;4971088;28;20130;-71
2023/04/03 01:27:08;;;;;;;3.15;1.73;;;;;;;;;;4970778;28;20055;-71
2023/04/03 01:29:36;;;;;;;4.32;2.20;;;;;;;;;;4970641;28;20046;-71
2023/04/03 01:32:05;;;;;;;2.10;1.90;;;;;;;;;;4970463;28;20484;-71
2023/04/03 01:34:32;;;;;;;2.95;2.10;;;;;;;;;;4970540;28;20451;-71
2023/04/03 01:36:59;;;;;;;1.98;1.83;;;;;;;;;;4970108;28;20194;-70
2023/04/03 01:39:25;;;;;;;4.20;1.80;;;;;;;;;;4970634;28;20043;-71
2023/04/03 01:41:52;;;;;;;1.98;1.77;;;;;;;;;;4970690;28;20133;-71
2023/04/03 01:44:19;;;;;;;2.78;1.70;;;;;;;;;;4970069;28;20042;-71
2023/04/03 01:46:46;;;;;;;2.55;1.75;;;;;;;;;;4970420;28;20066;-70
2023/04/03 01:49:14;;;;;;;2.53;2.17;;;;;;;;;;4970367;28;20078;-71
2023/04/03 01:51:40;;;;;;;3.72;2.15;;;;;;;;;;4970617;28;20313;-71
2023/04/03 01:54:07;;;;;;;3.13;2.15;;;;;;;;;;4970277;28;20100;-71
2023/04/03 01:56:34;;;;;;;3.45;2.03;;;;;;;;;;4970493;28;20397;-71
2023/04/03 01:59:01;;;;;;;2.95;2.15;;;;;;;;;;4969717;28;20128;-71
2023/04/03 02:01:27;;;;;;;3.15;2.08;;;;;;;;;;4970237;28;20575;-71
2023/04/03 02:03:54;;;;;;;3.30;2.03;;;;;;;;;;4969829;28;20528;-70
2023/04/03 02:06:22;;;;;;;2.90;1.90;;;;;;;;;;4970397;28;20043;-70
2023/04/03 02:08:49;;;;;;;3.30;1.83;;;;;;;;;;4985165;28;20607;-71
2023/04/03 02:11:15;;;;;;;2.70;2.10;;;;;;;;;;4989276;28;20108;-70
2023/04/03 02:13:42;;;;;;;2.03;1.83;;;;;;;;;;4989547;28;20100;-70
2023/04/03 02:16:10;;;;;;;2.97;1.90;;;;;;;;;;4989116;28;20046;-71
2023/04/03 02:18:38;;;;;;;2.92;2.13;;;;;;;;;;4988631;28;20055;-71
2023/04/03 02:21:04;;;;;;;3.92;1.83;;;;;;;;;;4989494;28;20129;-71
2023/04/03 02:23:33;;;;;;;5.22;2.30;;;;;;;;;;4989624;28;20054;-70
2023/04/03 02:26:05;;;;;;;2.95;2.20;;;;;;;;;;4989593;28;20046;-71
2023/04/03 02:28:32;;;;;;;5.43;2.50;;;;;;;;;;4989195;28;20134;-71
2023/04/03 02:30:59;;;;;;;2.67;2.10;;;;;;;;;;4989519;28;20089;-71
2023/04/03 02:33:27;;;;;;;2.75;2.28;;;;;;;;;;4989788;28;20062;-70
2023/04/03 02:35:55;;;;;;;2.35;1.88;;;;;;;;;;4989073;28;20128;-71
2023/04/03 02:38:22;;;;;;;2.90;1.90;;;;;;;;;;4989259;28;20047;-71
2023/04/03 02:40:50;;;;;;;2.92;2.28;;;;;;;;;;4969954;28;20131;-71
2023/04/03 02:43:17;;;;;;;4.97;2.30;;;;;;;;;;4970180;28;20112;-71
2023/04/03 02:45:44;;;;;;;3.72;2.30;;;;;;;;;;4970113;28;20090;-71
2023/04/03 02:48:10;;;;;;;2.67;2.10;;;;;;;;;;4969151;28;20096;-70
2023/04/03 02:50:37;;;;;;;5.70;2.40;;;;;;;;;;4970107;28;20396;-71
2023/04/03 02:53:04;;;;;;;2.47;2.10;;;;;;;;;;4969316;28;20051;-71
2023/04/03 02:55:31;;;;;;;4.18;1.90;;;;;;;;;;4969485;28;20488;-71
2023/04/03 02:57:59;;;;;;;4.72;2.20;;;;;;;;;;4969022;28;20050;-71
2023/04/03 03:00:26;;;;;;;2.30;1.83;;;;;;;;;;4969880;28;20043;-71
2023/04/03 03:02:52;;;;;;;3.38;1.88;;;;;;;;;;4969056;28;20474;-70
2023/04/03 03:05:19;;;;;;;4.63;2.10;;;;;;;;;;4971035;28;20069;-70
2023/04/03 03:07:46;;;;;;;2.63;1.95;;;;;;;;;;4987964;28;20191;-70
2023/04/03 03:10:12;;;;;;;3.92;1.70;;;;;;;;;;4988854;28;20465;-71
2023/04/03 03:12:40;;;;;;;4.30;2.35;;;;;;;;;;4988475;28;20050;-71
2023/04/03 03:15:09;;;;;;;2.20;1.75;;;;;;;;;;4989095;28;20431;-71
2023/04/03 03:17:36;;;;;;;4.72;2.03;;;;;;;;;;4988240;28;20054;-71
2023/04/03 03:20:03;;;;;;;2.78;2.08;;;;;;;;;;4988524;28;20054;-70
2023/04/03 03:22:29;;;;;;;3.08;2.10;;;;;;;;;;4988252;28;20046;-70
2023/04/03 03:24:56;;;;;;;2.13;1.80;;;;;;;;;;4988729;28;20043;-71
2023/04/03 03:27:23;;;;;;;5.38;2.40;;;;;;;;;;4988395;28;20050;-71
2023/04/03 03:29:50;;;;;;;3.10;2.05;;;;;;;;;;4988473;28;20046;-71
2023/04/03 03:32:18;;;;;;;2.15;1.95;;;;;;;;;;4988660;28;20142;-71
2023/04/03 03:34:45;;;;;;;2.90;2.20;;;;;;;;;;4988179;28;20069;-71
2023/04/03 03:37:11;;;;;;;4.40;2.30;;;;;;;;;;4972675;28;20047;-70
2023/04/03 03:39:38;;;;;;;4.03;2.47;;;;;;;;;;4968603;28;20096;-70
2023/04/03 03:42:05;;;;;;;3.30;2.20;;;;;;;;;;4969269;28;20051;-71
2023/04/03 03:44:32;;;;;;;4.13;2.35;;;;;;;;;;4968855;28;20547;-71
2023/04/03 03:46:58;;;;;;;5.70;2.67;;;;;;;;;;4968704;28;20493;-71
2023/04/03 03:49:26;;;;;;;3.95;2.15;;;;;;;;;;4968628;28;20043;-71
2023/04/03 03:51:53;;;;;;;3.65;3.22;;;;;;;;;;4968684;28;20451;-70
2023/04/03 03:54:20;;;;;;;2.47;1.90;;;;;;;;;;4968535;28;20513;-71
2023/04/03 03:56:46;;;;;;;4.32;2.03;;;;;;;;;;4968931;28;20362;-71
2023/04/03 03:59:13;;;;;;;3.75;2.25;;;;;;;;;;4968380;28;20572;-70
2023/04/03 04:01:40;;;;;;;2.83;2.13;;;;;;;;;;4968656;28;20134;-71
2023/04/03 04:04:07;;;;;;;3.83;2.22;;;;;;;;;;4968666;28;20241;-70
2023/04/03 04:06:35;;;;;;;2.88;2.47;;;;;;;;;;4968186;28;20423;-71
2023/04/03 04:09:02;;;;;;;2.90;2.03;;;;;;;;;;4968557;28;20101;-71
2023/04/03 04:11:28;;;;;;;4.68;2.42;;;;;;;;;;4968238;28;20134;-71
2023/04/03 04:13:55;;;;;;;2.50;2.30;;;;;;;;;;4968856;28;20486;-71
2023/04/03 04:16:22;;;;;;;2.90;2.28;;;;;;;;;;4987395;28;20050;-71
2023/04/03 04:18:48;;;;;;;3.72;2.47;;;;;;;;;;4987319;28;20522;-70
2023/04/03 04:21:15;;;;;;;6.38;2.33;;;;;;;;;;4987723;28;20051;-71
2023/04/03 04:23:43;;;;;;;2.60;2.15;;;;;;;;;;4987979;28;20095;-71
2023/04/03 04:26:10;;;;;;;5.25;2.22;;;;;;;;;;4987710;28;20133;-71
2023/04/03 04:28:36;;;;;;;3.60;2.75;;;;;;;;;;4987804;28;20492;-71
2023/04/03 04:31:03;;;;;;;4.18;2.38;;;;;;;;;;5000656;22;20046;-67
2023/04/03 04:33:30;;;;;;;4.03;2.38;;;;;;;;;;5025494;28;20582;-68
2023/04/03 04:35:56;;;;;;;3.95;2.67;;;;;;;;;;5024986;28;20448;-67
2023/04/03 04:38:23;;;;;;;3.17;2.42;;;;;;;;;;5026681;28;20056;-67
2023/04/03 04:40:51;;;;;;;3.88;2.10;;;;;;;;;;5027014;28;20056;-68
2023/04/03 04:43:17;;;;;;;4.65;2.42;;;;;;;;;;5030149;28;20048;-67
2023/04/03 04:45:44;;;;;;;4.15;2.60;;;;;;;;;;5030252;28;20061;-68
2023/04/03 04:48:10;;;;;;;3.85;2.72;;;;;;;;;;5029869;28;20544;-67
2023/04/03 04:50:37;;;;;;;3.33;2.50;;;;;;;;;;5030096;28;20072;-68
2023/04/03 04:53:04;;;;;;;4.40;2.58;;;;;;;;;;5029876;28;20406;-67
2023/04/03 04:55:30;;;;;;;5.25;2.58;;;;;;;;;;5030006;28;20077;-68
2023/04/03 04:57:58;;;;;;;6.28;2.83;;;;;;;;;;5029468;28;20045;-68
2023/04/03 05:00:25;;;;;;;4.38;2.60;;;;;;;;;;5029673;28;20527;-67
2023/04/03 05:02:52;;;;;;;3.33;2.30;;;;;;;;;;5029993;28;20061;-68
2023/04/03 05:05:18;;;;;;;3.20;2.53;;;;;;;;;;5029960;28;20045;-68
2023/04/03 05:07:45;;;;;;;3.65;2.80;;;;;;;;;;5018039;28;20045;-67
2023/04/03 05:10:11;;;;;;;4.00;2.45;;;;;;;;;;5010006;28;20053;-68
2023/04/03 05:12:38;;;;;;;3.92;2.60;;;;;;;;;;5009655;28;20484;-68
2023/04/03 05:15:07;;;;;;;3.58;2.60;;;;;;;;;;5009473;28;20406;-67
2023/04/03 05:17:34;;;;;;;5.38;2.85;;;;;;;;;;5009943;28;20494;-68
2023/04/03 05:20:00;;;;;;;4.97;3.42;;;;;;;;;;5009599;28;20110;-67
2023/04/03 05:22:27;;;;;;;3.92;3.08;;;;;;;;;;5010068;28;20042;-67
2023/04/03 05:24:54;;;;;;;4.70;2.92;;;;;;;;;;5009378;28;20129;-67
2023/04/03 05:27:20;;;;;;;4.22;2.60;;;;;;;;;;5009470;28;20045;-68
2023/04/03 05:29:47;;;;;;;4.30;3.15;;;;;;;;;;5009237;28;20062;-67
2023/04/03 05:32:15;;;;;;;6.80;2.90;;;;;;;;;;5009726;28;20050;-67
2023/04/03 05:34:41;;;;;;;7.50;2.75;;;;;;;;;;5009245;28;20139;-67
2023/04/03 05:37:08;;;;;;;6.97;3.08;;;;;;;;;;5009518;28;20476;-68
2023/04/03 05:39:35;;;;;;;4.53;2.60;;;;;;;;;;5028821;28;20045;-68
2023/04/03 05:42:01;;;;;;;4.05;3.10;;;;;;;;;;5029149;28;20041;-67
2023/04/03 05:44:28;;;;;;;4.38;2.70;;;;;;;;;;5028637;28;20061;-68
2023/04/03 05:46:54;;;;;;;5.20;2.95;;;;;;;;;;5029210;28;20045;-68
2023/04/03 05:49:22;;;;;;;5.63;2.65;;;;;;;;;;5028971;28;20050;-68
2023/04/03 05:51:49;;;;;;;3.75;2.70;;;;;;;;;;5029437;28;20426;-67
2023/04/03 05:54:20;;;;;;;3.97;2.60;;;;;;;;;;5027933;28;20050;-68
2023/04/03 05:56:46;;;;;;;4.38;2.53;;;;;;;;;;5028852;28;20380;-67
2023/04/03 05:59:13;;;;;;;3.65;2.90;;;;;;;;;;5029268;28;20379;-67
2023/04/03 06:01:40;;;;;;;3.00;2.67;;;;;;;;;;5029215;28;20498;-68
2023/04/03 06:04:08;;;;;;;3.83;2.33;;;;;;;;;;5025684;28;20048;-68
2023/04/03 06:06:48;;;;;;;6.72;2.70;;;;;;;;;;5018956;28;20041;-67
2023/04/03 06:09:15;;;;;;;4.13;2.97;;;;;;;;;;5014924;28;20091;-68
2023/04/03 06:11:42;;;;;;;3.97;3.00;;;;;;;;;;5014234;28;20406;-67
2023/04/03 06:14:09;;;;;;;4.65;2.72;;;;;;;;;;5020343;28;20057;-67
2023/04/03 06:16:36;;;;;;;4.95;2.88;;;;;;;;;;5026314;28;20054;-67
2023/04/03 06:19:02;;;;;;;4.10;2.65;;;;;;;;;;5026252;28;20071;-67
2023/04/03 06:21:30;;;;;;;3.95;2.90;;;;;;;;;;5019236;28;20182;-67
2023/04/03 06:23:57;;;;;;;5.03;3.03;;;;;;;;;;5011822;28;20049;-68
2023/04/03 06:26:24;;;;;;;4.65;2.97;;;;;;;;;;5012796;28;20076;-67
2023/04/03 06:28:51;;;;;;;2.88;2.50;;;;;;;;;;5014021;28;20049;-68
2023/04/03 06:31:17;;;;;;;5.32;2.63;;;;;;;;;;5013042;28;20430;-68
2023/04/03 06:33:44;;;;;;;4.70;2.67;;;;;;;;;;5013070;28;20422;-67
2023/04/03 06:36:12;;;;;;;5.05;2.72;;;;;;;;;;5019566;28;20426;-68
2023/04/03 06:38:39;;;;;;;3.35;2.20;;;;;;;;;;5018504;28;20049;-68
2023/04/03 06:41:07;;;;;;;4.93;2.60;;;;;;;;;;5021006;28;20054;-68
2023/04/03 06:43:34;;;;;;;2.30;1.88;;;;;;;;;;5021212;28;20042;-68
2023/04/03 06:46:00;;;;;;;3.55;2.10;;;;;;;;;;5007608;28;20129;-68
2023/04/03 06:48:27;;;;;;;17.80;8.45;;;;;;;;;;5011476;28;20077;-68
2023/04/03 06:50:54;;;;;;;16.20;8.20;;;;;;;;;;5008323;28;20056;-68
2023/04/03 06:53:20;;;;;;;10.23;7.00;;;;;;;;;;5013580;28;20062;-67
2023/04/03 06:55:47;;;;;;;6.53;3.15;;;;;;;;;;5018788;28;20055;-68
2023/04/03 06:58:17;;;;;;;6.65;3.55;;;;;;;;;;5013817;28;20046;-68
2023/04/03 07:00:43;;;;;;;6.10;3.55;;;;;;;;;;5014825;28;20069;-67
2023/04/03 07:03:10;;;;;;;3.55;2.20;;;;;;;;;;5009088;28;20077;-68
2023/04/03 07:05:37;;;;;;;2.95;1.80;;;;;;;;;;5012687;28;20058;-68
2023/04/03 07:08:03;;;;;;;2.63;1.75;;;;;;;;;;5016836;28;20046;-67
2023/04/03 07:10:30;;;;;;;1.90;1.40;;;;;;;;;;5023861;28;20050;-68
2023/04/03 07:12:57;;;;;;;2.55;1.70;;;;;;;;;;5040301;28;20363;-68
2023/04/03 07:15:25;;;;;;;3.25;1.30;;;;;;;;;;5086103;28;20097;-68
2023/04/03 07:17:51;;;;;;;2.22;1.40;;;;;;;;;;5038771;28;20271;-68
2023/04/03 07:20:18;;;;;;;2.65;1.30;;;;;;;;;;5021316;28;20802;-68
2023/04/03 07:22:45;;;;;;;3.53;1.60;;;;;;;;;;5014938;28;20162;-68
2023/04/03 07:25:12;;;;;;;1.60;1.27;;;;;;;;;;5017129;28;20053;-68
2023/04/03 07:27:39;;;;;;;2.65;1.55;;;;;;;;;;5024072;28;20053;-68
2023/04/03 07:30:07;;;;;;;2.67;1.33;;;;;;;;;;5025792;28;20050;-68
2023/04/03 07:32:35;;;;;;;1.75;1.60;;;;;;;;;;5016103;28;20460;-68
2023/04/03 07:35:01;;;;;;;3.20;1.25;;;;;;;;;;5013991;28;20125;-69
2023/04/03 07:37:28;;;;;;;3.70;1.35;;;;;;;;;;5014976;28;20046;-68
2023/04/03 07:39:54;;;;;;;4.13;1.90;;;;;;;;;;5013566;28;20128;-67
2023/04/03 07:42:21;;;;;;;21.67;13.65;;;;;;;;;;5052937;28;20139;-68
2023/04/03 07:44:48;;;;;;;3.03;2.08;;;;;;;;;;5019645;28;20050;-68
2023/04/03 07:47:17;;;;;;;5.18;2.50;;;;;;;;;;5017176;28;20045;-68
2023/04/03 07:49:44;;;;;;;4.53;1.35;;;;;;;;;;5011847;28;20043;-68
2023/04/03 07:52:11;;;;;;;3.42;1.50;;;;;;;;;;5017603;28;20053;-68
2023/04/03 07:54:38;;;;;;;2.60;1.20;;;;;;;;;;5021340;28;20287;-68
2023/04/03 07:57:04;;;;;;;2.50;1.30;;;;;;;;;;5015135;28;20041;-67
2023/04/03 07:59:31;;;;;;;3.95;1.75;;;;;;;;;;5016037;28;20080;-68
2023/04/03 08:01:58;;;;;;;4.50;1.75;;;;;;;;;;5013556;28;20046;-68
2023/04/03 08:04:25;;;;;;;4.95;1.20;;;;;;;;;;5017611;28;20041;-68
2023/04/03 08:06:53;;;;;;;3.20;1.45;;;;;;;;;;5013663;28;20063;-68
2023/04/03 08:09:20;;;;;;;2.28;1.60;;;;;;;;;;5016120;28;20051;-68
2023/04/03 08:11:47;;;;;;;1.95;1.20;;;;;;;;;;5015227;28;20090;-68
2023/04/03 08:14:17;;;;;;;2.45;1.75;;;;;;;;;;5013002;28;20048;-68
2023/04/03 08:16:45;;;;;;;2.50;1.40;;;;;;;;;;5019532;28;20042;-68
2023/04/03 08:19:12;;;;;;;1.42;1.20;;;;;;;;;;5019242;28;20041;-67
2023/04/03 08:21:41;;;;;;;2.53;1.50;;;;;;;;;;5024045;28;20053;-68
2023/04/03 08:24:09;;;;;;;2.17;1.40;;;;;;;;;;5035015;28;20421;-67
2023/04/03 08:26:37;;;;;;;1.23;1.10;;;;;;;;;;5016855;28;20055;-68
2023/04/03 08:29:03;;;;;;;3.15;1.45;;;;;;;;;;5020513;28;20092;-68
2023/04/03 08:31:30;;;;;;;3.47;1.73;;;;;;;;;;5018712;28;20502;-68
2023/04/03 08:33:58;;;;;;;3.22;1.60;;;;;;;;;;5019026;28;20045;-68
2023/04/03 08:36:27;;;;;;;1.85;1.48;;;;;;;;;;5024543;28;20045;-64
2023/04/03 08:38:54;;;;;;;2.50;2.10;;;;;;;;;;5016206;28;20098;-66
2023/04/03 08:41:31;;;;;;;3.78;2.33;;;;;;;;;;5025652;28;20114;-65
2023/04/03 08:44:04;;;;;;;2.47;2.28;;;;;;;;;;5021839;28;20053;-66
2023/04/03 08:46:41;;;;;;;2.83;1.88;;;;;;;;;;5024923;28;20103;-65
2023/04/03 08:49:16;;;;;;;3.55;1.70;;;;;;;;;;5025691;28;20049;-66
2023/04/03 08:51:49;;;;;;;2.63;1.45;;;;;;;;;;5058156;28;20043;-64
2023/04/03 08:54:27;;;;;;;4.05;1.48;;;;;;;;;;5017630;28;20133;-65
2023/04/03 08:56:56;;;;;;;2.97;1.63;;;;;;;;;;5012025;28;20046;-66
2023/04/03 08:59:28;;;;;;;3.00;1.45;;;;;;;;;;5016698;28;20450;-63
2023/04/03 09:01:56;;;;;;;3.10;1.83;;;;;;;;;;5007884;28;20070;-65
2023/04/03 09:04:34;;;;;;;5.03;1.88;;;;;;;;;;5002050;28;20045;-66
2023/04/03 09:07:07;;;;;;;3.97;1.70;;;;;;;;;;5018595;28;20046;-65
2023/04/03 09:09:36;;;;;;;;;;;;;;;;;;5005688;28;20054;-66
2023/04/03 09:12:14;;;;;;;2.90;1.35;;;;;;;;;;5008925;28;19929;-64
2023/04/03 09:14:48;;;;;;;2.67;1.63;;;;;;;;;;5021011;28;20049;-65
2023/04/03 09:17:30;;;;;;;4.75;1.95;;;;;;;;;;5014788;28;20092;-65
2023/04/03 09:20:03;;;;;;;2.58;1.60;;;;;;;;;;5021000;28;20507;-64
2023/04/03 09:22:33;;;;;;;;;;;;;;;;;;5059754;28;20107;-65
2023/04/03 09:25:14;;;;;;;2.03;1.40;;;;;;;;;;5022977;28;19921;-65
2023/04/03 09:27:42;;;;;;;2.83;1.50;;;;;;;;;;5017866;28;20046;-66
2023/04/03 09:30:15;;;;;;;5.30;2.17;;;;;;;;;;5020448;28;20045;-65
2023/04/03 09:32:45;;;;;;;2.85;1.73;;;;;;;;;;5010079;28;20054;-66
2023/04/03 09:35:23;;;;;;;3.75;1.70;;;;;;;;;;5011943;28;20517;-64
2023/04/03 09:37:52;;;;;;;2.92;1.95;;;;;;;;;;5039756;28;20493;-65
2023/04/03 09:40:33;;;;;;;2.97;2.15;;;;;;;;;;5014514;28;20046;-65
2023/04/03 09:43:03;;;;;;;2.88;2.10;;;;;;;;;;5035246;28;20128;-65
2023/04/03 09:45:31;;;;;;;3.03;1.90;;;;;;;;;;5026570;28;20128;-66
2023/04/03 09:48:15;;;;;;;2.65;2.00;;;;;;;;;;5021991;28;20062;-65
2023/04/03 09:50:58;;;;;;;3.55;3.20;;;;;;;;;;5023354;28;20137;-63
2023/04/03 09:53:35;;;;;;;3.03;2.00;;;;;;;;;;5011989;28;20138;-65
2023/04/03 09:56:03;;;;;;;2.65;1.80;;;;;;;;;;5016136;28;20049;-64
2023/04/03 09:58:40;;;;;;;2.42;1.80;;;;;;;;;;5024062;28;20052;-64
2023/04/03 10:01:07;;;;;;;2.08;1.75;;;;;;;;;;5025966;28;20053;-65
2023/04/03 10:03:36;;;;;;;3.65;1.90;;;;;;;;;;5015352;28;20049;-65
2023/04/03 10:06:04;;;;;;;2.67;1.85;;;;;;;;;;5014832;28;20054;-63
2023/04/03 10:08:32;;;;;;;3.97;1.70;;;;;;;;;;5026928;28;20137;-64
2023/04/03 10:11:16;;;;;;;3.10;1.73;;;;;;;;;;5028492;28;20411;-65
2023/04/03 10:13:56;;;;;;;3.92;1.88;;;;;;;;;;5028754;28;20407;-65
2023/04/03 10:16:28;;;;;;;3.40;1.80;;;;;;;;;;5026337;28;20474;-65
2023/04/03 10:19:04;;;;;;;3.88;1.70;;;;;;;;;;5019841;28;20464;-65
2023/04/03 10:21:39;;;;;;;2.78;1.60;;;;;;;;;;5026967;28;20550;-65
2023/04/03 10:24:13;;;;;;;4.00;1.60;;;;;;;;;;5022206;28;20407;-66
2023/04/03 10:26:46;;;;;;;4.05;1.80;;;;;;;;;;5018412;28;20049;-66
2023/04/03 10:29:19;;;;;;;;;;;;;;;;;;5015196;28;20492;-65
2023/04/03 10:31:55;;;;;;;3.58;1.75;;;;;;;;;;5037736;23;20042;-68
2023/04/03 10:34:24;;;;;;;2.13;1.70;;;;;;;;;;5027380;28;20090;-67
2023/04/03 10:36:58;;;;;;;2.95;1.60;;;;;;;;;;5028421;28;20050;-68
2023/04/03 10:39:34;;;;;;;3.78;1.90;;;;;;;;;;5026886;28;20130;-68
2023/04/03 10:42:09;;;;;;;2.42;1.77;;;;;;;;;;5031427;28;20139;-68
2023/04/03 10:44:51;;;;;;;2.65;1.67;;;;;;;;;;5032549;28;20129;-67
2023/04/03 10:47:22;;;;;;;3.67;1.70;;;;;;;;;;5024517;28;20133;-68
2023/04/03 10:49:55;;;;;;;1.58;1.45;;;;;;;;;;5031816;28;20053;-67
2023/04/03 10:52:27;;;;;;;3.35;1.45;;;;;;;;;;5027112;28;20402;-68
2023/04/03 10:55:02;;;;;;;4.50;1.80;;;;;;;;;;5027118;28;20375;-68
2023/04/03 10:57:30;;;;;;;4.35;1.63;;;;;;;;;;5026808;28;20048;-67
2023/04/03 11:00:01;;;;;;;2.03;1.50;;;;;;;;;;5027214;28;20406;-67
2023/04/03 11:02:31;;;;;;;2.95;1.58;;;;;;;;;;5027994;28;20574;-67
2023/04/03 11:05:02;;;;;;;2.88;1.45;;;;;;;;;;5043187;28;20052;-68
2023/04/03 11:07:34;;;;;;;2.97;1.70;;;;;;;;;;5045436;28;20076;-66
2023/04/03 11:10:12;;;;;;;4.43;1.50;;;;;;;;;;5027017;28;20048;-67
2023/04/03 11:12:44;;;;;;;3.60;1.33;;;;;;;;;;5027565;28;20451;-66
2023/04/03 11:15:16;;;;;;;2.20;1.40;;;;;;;;;;5027051;28;20141;-65
2023/04/03 11:17:50;;;;;;;3.13;1.30;;;;;;;;;;5027469;28;20066;-66
2023/04/03 11:20:20;;;;;;;3.67;1.42;;;;;;;;;;5027233;28;20059;-65
2023/04/03 11:22:51;;;;;;;2.08;1.50;;;;;;;;;;5026921;28;20049;-67
2023/04/03 11:25:22;;;;;;;2.17;1.40;;;;;;;;;;5027428;28;20106;-68
2023/04/03 11:27:53;;;;;;;2.10;1.20;;;;;;;;;;5027260;28;20574;-67
2023/04/03 11:30:24;;;;;;;5.70;1.65;;;;;;;;;;5027401;28;20103;-68
2023/04/03 11:33:09;;;;;;;2.10;1.30;;;;;;;;;;5026594;28;20126;-68
2023/04/03 11:35:36;;;;;;;2.40;1.40;;;;;;;;;;5027013;28;20045;-67
2023/04/03 11:38:06;;;;;;;2.10;1.25;;;;;;;;;;5039080;28;20044;-66
2023/04/03 11:40:35;;;;;;;1.90;1.40;;;;;;;;;;5037068;28;20609;-66
2023/04/03 11:43:07;;;;;;;2.75;1.40;;;;;;;;;;5017443;28;20041;-66
2023/04/03 11:45:38;;;;;;;3.22;1.40;;;;;;;;;;5026162;28;20053;-66
2023/04/03 11:48:26;;;;;;;1.38;1.13;;;;;;;;;;5027190;28;20050;-67
2023/04/03 11:50:53;;;;;;;3.22;1.58;;;;;;;;;;5025203;28;20091;-67
2023/04/03 11:53:35;;;;;;;3.58;1.65;;;;;;;;;;5027084;28;20045;-66
2023/04/03 11:56:20;;;;;;;2.90;1.00;;;;;;;;;;5027109;28;20223;-68
2023/04/03 11:59:19;;;;;;;2.85;1.42;;;;;;;;;;5025682;28;20056;-67
2023/04/03 12:01:48;;;;;;;2.42;1.92;;;;;;;;;;5027377;28;20483;-68
2023/04/03 12:04:17;;;;;;;2.10;1.10;;;;;;;;;;5031886;28;20052;-66
2023/04/03 12:07:16;;;;;;;4.10;1.45;;;;;;;;;;5012844;28;20045;-67
2023/04/03 12:10:27;;;;;;;3.25;1.20;;;;;;;;;;5026746;28;20084;-65
2023/04/03 12:12:58;;;;;;;1.83;1.40;;;;;;;;;;5006604;28;20050;-67
2023/04/03 12:15:59;;;;;;;4.00;1.50;;;;;;;;;;5023468;28;20086;-67
2023/04/03 12:18:42;;;;;;;2.70;1.15;;;;;;;;;;5026456;28;20199;-67
2023/04/03 12:21:09;;;;;;;4.90;1.60;;;;;;;;;;5006648;28;20046;-65
2023/04/03 12:23:38;;;;;;;2.88;1.23;;;;;;;;;;5007056;28;20472;-68
2023/04/03 12:26:22;;;;;;;3.05;1.30;;;;;;;;;;5006537;28;20312;-67
2023/04/03 12:28:50;;;;;;;1.55;1.10;;;;;;;;;;5006910;28;20054;-67
2023/04/03 12:31:17;;;;;;;1.95;1.17;;;;;;;;;;5006715;28;20057;-66
2023/04/03 12:36:47;;;;;;;4.70;2.45;;;;;;;;;;5087209;28;20402;-67
2023/04/03 12:39:49;;;;;;;2.45;1.17;;;;;;;;;;5086594;28;20198;-67
2023/04/03 12:42:30;;;;;;;2.30;1.20;;;;;;;;;;5077372;28;20123;-67
2023/04/03 12:45:02;;;;;;;1.52;1.02;;;;;;;;;;5066139;28;20170;-67
2023/04/03 12:47:32;;;;;;;3.10;1.17;;;;;;;;;;5077656;28;20136;-66
2023/04/03 12:50:01;;;;;;;2.30;1.13;;;;;;;;;;5074960;28;20571;-67
2023/04/03 12:52:40;;;;;;;3.10;1.00;;;;;;;;;;5076461;28;20405;-66
2023/04/03 12:55:15;;;;;;;1.33;1.08;;;;;;;;;;5070131;28;20128;-67
2023/04/03 12:57:41;;;;;;;3.55;1.10;;;;;;;;;;5066597;28;20310;-67
2023/04/03 13:00:32;;;;;;;3.35;1.20;;;;;;;;;;5066678;28;20139;-66
2023/04/03 13:02:59;;;;;;;3.17;1.30;;;;;;;;;;5066378;28;20083;-66
2023/04/03 13:05:26;;;;;;;3.83;1.13;;;;;;;;;;5066409;28;20059;-67
2023/04/03 13:07:59;;;;;;;2.40;1.10;;;;;;;;;;5066385;28;20079;-68
2023/04/03 13:10:26;;;;;;;4.03;1.42;;;;;;;;;;5066563;28;20044;-65
2023/04/03 13:12:55;;;;;;;2.53;1.10;;;;;;;;;;5067152;28;20162;-67
2023/04/03 13:15:25;;;;;;;4.50;1.60;;;;;;;;;;5066530;28;20052;-67
2023/04/03 13:17:52;;;;;;;1.85;1.17;;;;;;;;;;5066604;28;20041;-68
2023/04/03 13:20:23;;;;;;;4.47;1.35;;;;;;;;;;5065956;28;20133;-67
2023/04/03 13:22:57;;;;;;;2.33;1.33;;;;;;;;;;5066172;28;20044;-68
2023/04/03 13:25:27;;;;;;;3.00;1.10;;;;;;;;;;5066143;28;20208;-68
2023/04/03 13:27:54;;;;;;;4.07;1.50;;;;;;;;;;5065795;28;20135;-69
2023/04/03 13:30:26;;;;;;;3.75;1.10;;;;;;;;;;5065633;28;20131;-67
2023/04/03 13:32:53;;;;;;;1.90;1.10;;;;;;;;;;5065293;28;20049;-65
2023/04/03 13:35:29;;;;;;;3.28;1.20;;;;;;;;;;5065664;28;20075;-67
2023/04/03 13:37:59;;;;;;;3.13;1.35;;;;;;;;;;5065125;28;20044;-67
2023/04/03 13:40:26;;;;;;;1.38;0.90;;;;;;;;;;5065892;28;20057;-66
2023/04/03 13:43:02;;;;;;;3.83;1.50;;;;;;;;;;5066001;28;20479;-67
2023/04/03 13:45:29;;;;;;;2.78;1.05;;;;;;;;;;5066365;28;20105;-67
2023/04/03 13:48:10;;;;;;;3.28;1.25;;;;;;;;;;5053411;28;20422;-66
2023/04/03 13:50:53;;;;;;;2.30;1.20;;;;;;;;;;5053623;28;20049;-68
2023/04/03 13:53:21;;;;;;;3.20;1.50;;;;;;;;;;5052954;28;20407;-68
2023/04/03 13:56:09;;;;;;;2.25;1.23;;;;;;;;;;5053115;28;20406;-67
2023/04/03 13:58:39;;;;;;;3.42;1.30;;;;;;;;;;5052725;28;20145;-68
2023/04/03 14:01:12;;;;;;;2.28;1.05;;;;;;;;;;5053102;28;20049;-66
2023/04/03 14:03:44;;;;;;;2.67;1.10;;;;;;;;;;5052938;28;20103;-69
2023/04/03 14:06:13;;;;;;;1.65;1.30;;;;;;;;;;5053593;28;20048;-69
2023/04/03 14:08:41;;;;;;;1.95;1.10;;;;;;;;;;5052763;28;20049;-67
2023/04/03 14:11:14;;;;;;;2.70;1.15;;;;;;;;;;5052854;28;20049;-67
2023/04/03 14:13:41;;;;;;;2.63;1.30;;;;;;;;;;5052991;28;20075;-66
2023/04/03 14:16:08;;;;;;;2.40;1.40;;;;;;;;;;5053149;28;20041;-69
2023/04/03 14:18:36;;;;;;;1.77;1.20;;;;;;;;;;5053306;28;20399;-67
2023/04/03 14:21:03;;;;;;;3.25;1.42;;;;;;;;;;5053065;28;20467;-68
2023/04/03 14:23:30;;;;;;;1.88;1.23;;;;;;;;;;5052821;28;20582;-69
2023/04/03 14:26:00;;;;;;;3.35;1.20;;;;;;;;;;5052494;28;20540;-68
2023/04/03 14:28:26;;;;;;;4.68;1.63;;;;;;;;;;5052669;28;20045;-66
2023/04/03 14:30:53;;;;;;;2.70;1.30;;;;;;;;;;5052579;28;20391;-68
2023/04/03 14:33:22;;;;;;;3.20;1.30;;;;;;;;;;5052793;28;20053;-68
2023/04/03 14:35:50;;;;;;;1.90;1.30;;;;;;;;;;5051941;28;20076;-67
2023/04/03 14:38:25;;;;;;;2.15;1.20;;;;;;;;;;5052329;28;20483;-66
2023/04/03 14:40:53;;;;;;;2.75;1.40;;;;;;;;;;5052080;28;20069;-69
2023/04/03 14:43:21;;;;;;;2.88;1.40;;;;;;;;;;5052139;28;20128;-68
2023/04/03 14:45:49;;;;;;;4.45;1.50;;;;;;;;;;5052252;28;20049;-68
2023/04/03 14:48:20;;;;;;;1.83;1.20;;;;;;;;;;5052214;28;20081;-67
2023/04/03 14:50:47;;;;;;;2.17;1.25;;;;;;;;;;5052198;28;20056;-68
2023/04/03 14:53:15;;;;;;;3.92;1.50;;;;;;;;;;5051970;28;20048;-67
2023/04/03 14:55:44;;;;;;;2.85;1.45;;;;;;;;;;5051716;28;20056;-68
2023/04/03 14:58:14;;;;;;;3.75;1.75;;;;;;;;;;5050962;28;20083;-68
2023/04/03 15:00:42;;;;;;;2.58;1.60;;;;;;;;;;5052145;28;20505;-68
2023/04/03 15:03:14;;;;;;;2.72;1.27;;;;;;;;;;5051909;28;20578;-68